Time;durP1;ratioP1;P1;durP2;ratioP2;P2;SDS_P1;SDS_P2;PMS_P1;PMS_P2;Temp;Humidity;BMP_temperature;BMP_pressure;BME280_temperature;BME280_humidity;BME280_pressure;Samples;Min_cycle;Max_cycle;Signal;HPM_P1;HPM_P2
2023/06/06 00:10:35;;;;;;;3.67;3.03;;;;;;;17.36;49.91;98931.94;4952813;28;42276;-78
2023/06/06 00:13:03;;;;;;;3.10;2.80;;;;;;;17.36;50.01;98945.31;4936433;28;39776;-79
2023/06/06 00:15:31;;;;;;;3.23;2.93;;;;;;;17.24;50.44;98941.06;4952328;28;40754;-78
2023/06/06 00:17:59;;;;;;;3.13;2.70;;;;;;;17.24;50.68;98947.25;4952108;28;41701;-78
2023/06/06 00:20:32;;;;;;;3.47;3.17;;;;;;;17.18;50.95;98941.63;4951745;28;41619;-78
2023/06/06 00:23:00;;;;;;;3.40;3.10;;;;;;;17.07;50.97;98939.00;4953265;28;40426;-78
2023/06/06 00:25:28;;;;;;;4.43;3.47;;;;;;;17.01;51.42;98939.56;4952141;28;41473;-78
2023/06/06 00:27:57;;;;;;;3.37;3.07;;;;;;;16.98;51.12;98939.81;4953552;28;43031;-78
2023/06/06 00:30:25;;;;;;;3.00;2.80;;;;;;;16.93;51.32;98931.38;4951998;28;41306;-78
2023/06/06 00:36:38;;;;;;;4.13;3.00;;;;;;;16.29;51.79;98865.56;4922213;28;42777;-78
2023/06/06 00:46:14;;;;;;;3.10;2.80;;;;;;;16.57;52.52;98941.53;4881058;28;38672;-77
2023/06/06 00:48:42;;;;;;;3.27;2.97;;;;;;;16.52;52.87;98939.28;4936873;28;40865;-77
2023/06/06 00:51:11;;;;;;;3.23;2.90;;;;;;;16.47;52.85;98940.63;4936929;28;41970;-78
2023/06/06 00:53:39;;;;;;;3.40;3.10;;;;;;;16.32;52.94;98923.25;4936715;28;41665;-78
2023/06/06 00:56:07;;;;;;;4.03;3.63;;;;;;;16.37;52.74;98935.25;4936550;28;40161;-77
2023/06/06 00:58:36;;;;;;;3.03;2.83;;;;;;;16.33;53.03;98938.28;4936644;28;41030;-77
2023/06/06 01:01:04;;;;;;;3.70;2.97;;;;;;;16.23;53.22;98926.69;4935704;28;41789;-78
2023/06/06 01:03:34;;;;;;;3.77;3.47;;;;;;;16.23;53.24;98942.72;4950864;28;43024;-78
2023/06/06 01:06:02;;;;;;;3.40;3.10;;;;;;;16.19;53.41;98935.97;4951503;28;40778;-78
2023/06/06 01:08:30;;;;;;;3.53;3.20;;;;;;;16.13;53.48;98938.16;4935022;28;40916;-78
2023/06/06 01:11:08;;;;;;;3.27;2.97;;;;;;;16.08;53.54;98932.34;4951261;28;42785;-78
2023/06/06 01:13:43;;;;;;;3.40;3.10;;;;;;;16.03;53.53;98931.91;4935736;28;41368;-77
2023/06/06 01:16:19;;;;;;;3.37;3.07;;;;;;;15.96;53.74;98930.69;4936032;28;39608;-77
2023/06/06 01:18:51;;;;;;;4.17;3.00;;;;;;;15.83;53.87;98914.00;4935874;28;41634;-77
2023/06/06 01:21:19;;;;;;;3.30;3.00;;;;;;;15.88;54.10;98929.66;4920033;28;41724;-77
2023/06/06 01:23:50;;;;;;;3.40;3.10;;;;;;;15.82;53.98;98929.16;4919989;28;43074;-78
2023/06/06 01:26:17;;;;;;;4.00;3.60;;;;;;;15.58;54.16;98898.34;4935689;28;40241;-77
2023/06/06 01:28:46;;;;;;;3.63;3.33;;;;;;;15.68;54.44;98920.63;4935768;28;40712;-77
2023/06/06 01:34:58;;;;;;;3.13;2.93;;;;;;;15.63;54.69;98929.00;4935164;28;43414;-77
2023/06/06 01:37:35;;;;;;;3.10;2.90;;;;;;;15.57;54.72;98931.34;4935540;28;40133;-77
2023/06/06 01:40:07;;;;;;;3.53;3.23;;;;;;;15.49;54.88;98917.72;4935416;28;40733;-77
2023/06/06 01:42:39;;;;;;;3.83;3.20;;;;;;;15.45;54.89;98925.97;4949323;28;42884;-77
2023/06/06 01:45:10;;;;;;;3.57;3.27;;;;;;;15.45;55.52;98928.63;4950523;28;42353;-77
2023/06/06 01:47:39;;;;;;;3.53;3.23;;;;;;;15.42;55.50;98923.56;4952675;28;40816;-77
2023/06/06 01:50:08;;;;;;;3.27;2.97;;;;;;;15.35;55.58;98925.03;4936097;28;41820;-77
2023/06/06 01:52:37;;;;;;;3.53;3.07;;;;;;;15.34;55.75;98923.31;4952577;28;42053;-77
2023/06/06 01:55:08;;;;;;;3.47;3.17;;;;;;;15.32;55.69;98925.28;4936129;28;42174;-78
2023/06/06 01:57:36;;;;;;;3.30;3.00;;;;;;;15.21;55.57;98913.75;4936482;28;39435;-78
2023/06/06 02:00:08;;;;;;;2.97;2.67;;;;;;;15.28;55.57;98934.50;4936040;28;40586;-78
2023/06/06 02:02:41;;;;;;;3.40;3.10;;;;;;;15.22;55.63;98926.13;4952169;28;42548;-78
2023/06/06 02:05:09;;;;;;;3.33;3.03;;;;;;;15.03;55.50;98903.63;4952076;28;41359;-76
2023/06/06 02:07:41;;;;;;;3.03;2.73;;;;;;;15.21;55.84;98933.28;4952428;28;40903;-77
2023/06/06 02:10:11;;;;;;;3.00;2.70;;;;;;;15.17;55.76;98937.19;4950311;28;42742;-78
2023/06/06 02:12:39;;;;;;;3.23;2.93;;;;;;;15.14;56.01;98945.44;4951866;28;43503;-77
2023/06/06 02:15:09;;;;;;;3.00;2.80;;;;;;;15.10;56.06;98933.28;4951104;28;42980;-77
2023/06/06 02:17:38;;;;;;;3.40;3.10;;;;;;;15.08;56.39;98932.59;4935411;28;39333;-77
2023/06/06 02:20:10;;;;;;;4.83;3.23;;;;;;;15.03;57.11;98927.63;4953035;28;41373;-77
2023/06/06 02:22:39;;;;;;;3.73;3.37;;;;;;;14.93;58.21;98913.31;4938939;28;41961;-77
2023/06/06 02:25:12;;;;;;;3.83;3.43;;;;;;;14.82;58.27;98900.00;4938326;28;41411;-77
2023/06/06 02:27:43;;;;;;;3.50;3.20;;;;;;;14.90;57.76;98920.72;4953034;28;40922;-77
2023/06/06 02:30:11;;;;;;;4.00;3.60;;;;;;;14.85;57.80;98925.53;4937960;28;42089;-78
2023/06/06 02:32:39;;;;;;;3.80;3.00;;;;;;;14.80;57.72;98933.06;4938519;28;41846;-77
2023/06/06 02:35:10;;;;;;;3.40;3.10;;;;;;;14.74;58.28;98929.91;4938093;28;41005;-78
2023/06/06 02:37:38;;;;;;;3.37;3.07;;;;;;;14.70;58.13;98928.47;4954260;28;39353;-77
2023/06/06 02:40:08;;;;;;;3.83;3.27;;;;;;;14.65;58.04;98929.78;4938014;28;41157;-77
2023/06/06 02:42:38;;;;;;;4.23;3.63;;;;;;;14.57;57.95;98925.06;4955175;28;42756;-77
2023/06/06 02:45:09;;;;;;;3.77;3.47;;;;;;;14.54;58.18;98935.09;4938861;28;42333;-77
2023/06/06 02:47:37;;;;;;;3.50;3.20;;;;;;;14.51;58.15;98940.66;4955392;28;40131;-77
2023/06/06 02:50:07;;;;;;;4.33;3.53;;;;;;;14.46;57.96;98935.72;4934454;28;41302;-77
2023/06/06 02:52:38;;;;;;;3.40;3.10;;;;;;;14.39;58.32;98934.44;4954960;28;43986;-77
2023/06/06 02:55:07;;;;;;;4.33;3.20;;;;;;;14.29;58.13;98928.13;4953950;28;42389;-78
2023/06/06 02:57:35;;;;;;;3.47;3.17;;;;;;;14.33;58.21;98940.25;4937924;28;40852;-78
2023/06/06 03:00:07;;;;;;;3.47;3.17;;;;;;;14.22;58.53;98932.19;4957756;28;42790;-78
2023/06/06 03:02:36;;;;;;;3.43;3.13;;;;;;;14.24;58.68;98943.59;4970296;28;42878;-77
2023/06/06 03:05:06;;;;;;;3.63;3.33;;;;;;;14.20;58.54;98942.16;4943237;28;42268;-77
2023/06/06 03:07:34;;;;;;;3.53;3.23;;;;;;;14.12;58.79;98931.19;4953902;28;39102;-79
2023/06/06 03:10:02;;;;;;;3.13;2.83;;;;;;;14.09;58.57;98934.13;4937063;28;40675;-77
2023/06/06 03:12:36;;;;;;;4.13;3.30;;;;;;;14.09;58.62;98942.09;4938029;28;41650;-77
2023/06/06 03:15:07;;;;;;;3.83;3.43;;;;;;;14.10;59.00;98944.63;4953139;28;42289;-77
2023/06/06 03:17:40;;;;;;;2.97;2.70;;;;;;;13.99;58.62;98934.78;4937281;28;39032;-77
2023/06/06 03:20:09;;;;;;;3.70;3.07;;;;;;;14.01;58.70;98943.53;4936928;28;41153;-77
2023/06/06 03:22:39;;;;;;;4.37;3.40;;;;;;;14.08;58.70;98956.38;4937492;28;42049;-77
2023/06/06 03:25:08;;;;;;;3.17;2.87;;;;;;;13.97;58.86;98941.22;4936609;28;42404;-78
2023/06/06 03:27:35;;;;;;;2.87;2.67;;;;;;;14.06;59.13;98958.31;4937119;28;39080;-77
2023/06/06 03:30:06;;;;;;;3.27;2.97;;;;;;;14.03;59.30;98965.56;4953078;28;41709;-77
2023/06/06 03:32:35;;;;;;;3.60;3.23;;;;;;;14.03;59.29;98965.56;4952468;28;43405;-77
2023/06/06 03:35:03;;;;;;;3.57;3.10;;;;;;;14.02;59.00;98969.19;4953061;28;42282;-77
2023/06/06 03:37:31;;;;;;;4.33;3.77;;;;;;;14.00;59.30;98965.78;4936840;28;39013;-78
2023/06/06 03:39:59;;;;;;;3.97;3.57;;;;;;;14.01;59.50;98962.16;4953015;28;42516;-78
2023/06/06 03:42:29;;;;;;;4.00;3.60;;;;;;;13.91;59.53;98945.19;4953595;28;43068;-78
2023/06/06 03:44:58;;;;;;;3.40;3.10;;;;;;;14.06;59.22;98968.97;4937362;28;42284;-78
2023/06/06 03:47:27;;;;;;;3.53;2.93;;;;;;;14.07;59.43;98970.66;4952852;28;41096;-78
2023/06/06 03:49:55;;;;;;;4.13;3.43;;;;;;;14.10;59.53;98973.91;4937583;28;41729;-78
2023/06/06 03:52:23;;;;;;;3.60;3.20;;;;;;;14.03;59.28;98949.59;4953270;28;43063;-78
2023/06/06 03:54:51;;;;;;;3.40;3.10;;;;;;;13.97;59.58;98944.69;4921984;28;41293;-77
2023/06/06 03:57:18;;;;;;;3.50;3.20;;;;;;;14.21;59.50;98965.16;4954328;28;40101;-77
2023/06/06 03:59:46;;;;;;;3.40;3.10;;;;;;;14.24;59.53;98968.41;4938356;28;40765;-77
2023/06/06 04:02:14;;;;;;;3.43;3.13;;;;;;;14.28;59.82;98963.72;4936285;28;42848;-79
2023/06/06 04:04:43;;;;;;;4.00;3.60;;;;;;;14.35;59.68;98964.94;4952988;28;41040;-77
2023/06/06 04:07:11;;;;;;;3.77;3.30;;;;;;;14.38;59.95;98960.22;4954143;28;40045;-78
2023/06/06 04:09:40;;;;;;;3.30;3.00;;;;;;;14.47;60.68;98969.34;4952655;28;41706;-78
2023/06/06 04:12:08;;;;;;;4.40;4.00;;;;;;;14.50;61.67;98961.13;4937035;28;42958;-77
2023/06/06 04:14:36;;;;;;;3.87;3.50;;;;;;;14.50;61.92;98955.81;4952979;28;42379;-77
2023/06/06 04:17:07;;;;;;;4.20;3.80;;;;;;;14.61;61.85;98971.81;4953005;28;39164;-78
2023/06/06 04:19:36;;;;;;;4.20;3.80;;;;;;;14.66;61.75;98969.66;4921831;28;40265;-78
2023/06/06 04:22:06;;;;;;;4.67;4.07;;;;;;;14.73;61.64;98970.88;4936500;28;41517;-78
2023/06/06 04:24:33;;;;;;;4.13;3.63;;;;;;;14.72;61.25;98966.50;4952818;28;42322;-77
2023/06/06 04:27:03;;;;;;;5.20;3.70;;;;;;;14.88;61.38;98974.16;4936879;28;39527;-77
2023/06/06 04:29:32;;;;;;;4.63;3.80;;;;;;;14.88;61.68;98959.97;4952727;28;41719;-77
2023/06/06 04:32:00;;;;;;;4.40;3.90;;;;;;;15.03;61.07;98974.78;4936624;28;41787;-77
2023/06/06 04:34:30;;;;;;;3.93;3.63;;;;;;;15.11;60.77;98975.00;4920788;28;42263;-77
2023/06/06 04:37:03;;;;;;;4.80;4.10;;;;;;;15.21;60.51;98973.31;4936731;28;40953;-78
2023/06/06 04:39:33;;;;;;;3.53;3.23;;;;;;;15.31;60.44;98984.97;4934529;28;41855;-78
2023/06/06 04:42:04;;;;;;;4.10;3.70;;;;;;;15.42;60.21;98987.63;4935856;28;42323;-77
2023/06/06 04:44:32;;;;;;;4.23;3.83;;;;;;;15.52;60.27;98985.06;4953468;28;41635;-77
2023/06/06 04:47:03;;;;;;;4.70;4.30;;;;;;;15.56;60.15;98975.03;4937309;28;38851;-77
2023/06/06 04:49:35;;;;;;;4.37;3.63;;;;;;;15.76;60.00;98987.59;4937260;28;40733;-76
2023/06/06 04:52:05;;;;;;;4.40;4.00;;;;;;;15.86;60.23;98988.53;4937394;28;43136;-77
2023/06/06 04:54:35;;;;;;;5.57;4.03;;;;;;;15.98;59.77;98982.16;4937241;28;41068;-77
2023/06/06 04:57:02;;;;;;;4.80;3.97;;;;;;;16.08;59.74;98999.13;4953069;28;40215;-77
2023/06/06 04:59:32;;;;;;;5.50;4.17;;;;;;;16.20;59.70;98991.06;4950738;28;40618;-78
2023/06/06 05:02:01;;;;;;;5.40;4.17;;;;;;;16.13;59.50;98959.53;4951994;28;41661;-77
2023/06/06 05:04:32;;;;;;;3.93;3.60;;;;;;;16.31;59.42;98978.53;4936042;28;41238;-77
2023/06/06 05:07:01;;;;;;;4.33;3.93;;;;;;;16.57;59.09;99005.72;4935812;28;39415;-77
2023/06/06 05:09:28;;;;;;;4.80;4.00;;;;;;;16.70;58.61;98998.38;4935851;28;41562;-78
2023/06/06 05:11:58;;;;;;;5.70;4.30;;;;;;;16.80;59.00;99007.34;4951826;28;41934;-78
2023/06/06 05:14:26;;;;;;;5.80;5.23;;;;;;;16.92;59.02;98994.72;4952029;28;42165;-77
2023/06/06 05:16:56;;;;;;;5.30;4.80;;;;;;;17.09;58.68;99015.50;4953251;28;39938;-77
2023/06/06 05:19:24;;;;;;;4.87;4.27;;;;;;;17.21;58.63;99006.41;4936277;28;41963;-77
2023/06/06 05:21:52;;;;;;;5.40;4.20;;;;;;;17.34;58.29;99006.19;4935367;28;41157;-78
2023/06/06 05:24:20;;;;;;;5.73;5.13;;;;;;;17.45;58.28;99003.41;4951625;28;41193;-78
2023/06/06 05:26:48;;;;;;;5.53;5.03;;;;;;;17.59;58.29;99011.06;4951948;28;39844;-78
2023/06/06 05:29:17;;;;;;;6.37;5.70;;;;;;;17.72;57.76;98993.94;4952945;28;42571;-79
2023/06/06 05:31:45;;;;;;;7.97;6.13;;;;;;;17.83;57.87;99004.53;4946798;28;43744;-81
2023/06/06 05:34:12;;;;;;;5.20;4.70;;;;;;;17.84;57.27;98992.84;4935839;28;42372;-80
2023/06/06 05:36:42;;;;;;;10.87;5.97;;;;;;;18.10;57.54;99002.03;4934786;28;40521;-79
2023/06/06 05:39:10;;;;;;;4.77;4.33;;;;;;;18.24;57.54;99007.00;4942903;28;41630;-83
2023/06/06 05:41:37;;;;;;;6.17;4.70;;;;;;;18.31;57.34;98985.81;4971519;28;43061;-78
2023/06/06 05:44:05;;;;;;;4.40;4.00;;;;;;;18.54;56.79;99002.47;4945705;28;41880;-77
2023/06/06 05:46:34;;;;;;;5.27;4.60;;;;;;;18.69;56.71;99005.56;4952181;28;38799;-78
2023/06/06 05:49:02;;;;;;;7.67;5.03;;;;;;;18.85;56.61;99011.22;4952762;28;41720;-77
2023/06/06 05:51:30;;;;;;;5.63;5.13;;;;;;;18.90;57.61;99004.44;4935932;28;42871;-75
2023/06/06 05:53:58;;;;;;;5.17;4.73;;;;;;;18.92;57.09;99007.78;4951665;28;42472;-76
2023/06/06 05:56:26;;;;;;;5.43;4.93;;;;;;;18.96;57.21;98992.25;4952564;28;40378;-79
2023/06/06 05:58:54;;;;;;;6.07;4.80;;;;;;;19.11;57.03;99001.53;4952498;28;41091;-80
2023/06/06 06:01:24;;;;;;;4.70;4.30;;;;;;;19.34;57.15;99013.59;4936678;28;41542;-80
2023/06/06 06:03:53;;;;;;;6.77;5.47;;;;;;;19.47;56.90;99007.91;4936365;28;42365;-82
2023/06/06 06:06:21;;;;;;;7.37;5.53;;;;;;;19.31;56.09;98959.34;4936762;28;38616;-82
2023/06/06 06:08:50;;;;;;;5.63;5.13;;;;;;;19.76;55.80;99017.69;4936113;28;40770;-80
2023/06/06 06:11:18;;;;;;;6.00;5.50;;;;;;;19.76;55.86;99007.78;4952198;28;43605;-81
2023/06/06 06:13:46;;;;;;;5.70;5.20;;;;;;;19.96;56.23;99014.72;4952410;28;43236;-80
2023/06/06 06:16:14;;;;;;;5.17;4.67;;;;;;;20.05;55.55;99004.91;4951681;28;41574;-85
2023/06/06 06:18:41;;;;;;;5.40;4.90;;;;;;;20.27;55.29;99031.38;4935615;28;41146;-82
2023/06/06 06:21:11;;;;;;;5.13;4.63;;;;;;;20.50;55.08;99030.94;4952443;28;42578;-82
2023/06/06 06:23:38;;;;;;;6.70;4.83;;;;;;;20.64;54.98;99027.72;4935075;28;42238;-78
2023/06/06 06:26:06;;;;;;;5.37;4.87;;;;;;;20.69;54.53;99031.59;4935363;28;39619;-79
2023/06/06 06:28:34;;;;;;;4.93;4.47;;;;;;;20.76;54.16;99029.16;4935120;28;40656;-83
2023/06/06 06:31:01;;;;;;;5.93;5.17;;;;;;;20.84;54.37;99031.91;4951402;28;41806;-80
2023/06/06 06:33:30;;;;;;;5.50;5.00;;;;;;;20.89;54.54;99029.59;4959336;28;42376;-85
2023/06/06 06:35:58;;;;;;;5.20;4.70;;;;;;;20.93;54.96;99025.56;4934924;28;38905;-85
2023/06/06 06:38:27;;;;;;;5.10;4.60;;;;;;;21.08;54.22;99024.00;4934973;28;40820;-82
2023/06/06 06:40:55;;;;;;;5.63;5.00;;;;;;;21.19;54.14;99022.06;4935149;28;41805;-84
2023/06/06 06:43:23;;;;;;;6.23;5.23;;;;;;;21.51;53.57;99041.13;4936046;28;41474;-81
2023/06/06 06:46:00;;;;;;;5.93;5.33;;;;;;;21.75;53.28;99025.06;4936129;28;39039;-83
2023/06/06 06:48:28;;;;;;;6.27;5.67;;;;;;;22.16;52.10;99042.22;4936143;28;41685;-84
2023/06/06 06:50:57;;;;;;;5.40;4.90;;;;;;;22.29;51.57;99044.44;4953518;28;43801;-82
2023/06/06 06:53:30;;;;;;;5.07;4.40;;;;;;;22.39;51.38;99030.81;4936282;28;41231;-83
2023/06/06 06:56:16;;;;;;;5.60;4.97;;;;;;;22.46;51.11;99021.88;4937056;28;38908;-79
2023/06/06 06:58:44;;;;;;;4.97;4.47;;;;;;;22.61;51.40;99008.56;4935832;28;40729;-80
2023/06/06 07:01:12;;;;;;;5.80;5.20;;;;;;;22.96;50.96;99050.63;4952442;28;42800;-80
2023/06/06 07:03:44;;;;;;;8.70;4.60;;;;;;;22.71;50.46;99030.00;4931782;28;41053;-82
2023/06/06 07:06:20;;;;;;;5.13;4.63;;;;;;;22.71;50.73;99038.94;4936527;28;40079;-86
2023/06/06 07:08:52;;;;;;;5.07;4.50;;;;;;;22.89;50.96;99038.78;4918515;29;42032;-80
2023/06/06 07:11:21;;;;;;;5.53;4.30;;;;;;;23.06;50.85;99035.06;4926450;28;41729;-86
2023/06/06 07:13:50;;;;;;;5.20;4.80;;;;;;;23.32;49.80;99050.22;4932982;28;41183;-86
2023/06/06 07:16:20;;;;;;;5.13;4.60;;;;;;;23.55;50.21;99045.81;4937701;28;39311;-84
2023/06/06 07:18:50;;;;;;;6.10;3.90;;;;;;;23.82;49.88;99028.31;4922475;28;41205;-84
2023/06/06 07:24:00;;;;;;;5.10;4.60;;;;;;;25.00;47.04;99056.84;4933148;28;41158;-82
2023/06/06 07:26:29;;;;;;;4.97;4.47;;;;;;;25.33;46.39;99022.97;4922228;28;39110;-85
2023/06/06 07:28:56;;;;;;;5.23;4.20;;;;;;;26.06;44.91;99057.41;4936102;28;42271;-84
2023/06/06 07:31:27;;;;;;;4.20;3.80;;;;;;;26.46;40.81;99074.16;4930331;29;42026;-84
2023/06/06 07:33:59;;;;;;;4.07;3.77;;;;;;;27.06;38.75;99091.97;4930052;28;41105;-85
2023/06/06 07:36:27;;;;;;;3.83;3.53;;;;;;;27.56;39.06;99066.44;4922308;28;38610;-84
2023/06/06 07:38:57;;;;;;;3.87;3.53;;;;;;;28.10;38.15;99096.47;4936849;28;40619;-84
2023/06/06 07:41:29;;;;;;;4.23;3.87;;;;;;;28.09;36.88;99088.50;4930042;29;42866;-82
2023/06/06 07:43:56;;;;;;;3.60;2.87;;;;;;;27.89;36.33;99102.88;4946493;28;41566;-83
2023/06/06 07:46:25;;;;;;;3.43;3.13;;;;;;;27.75;35.47;99109.25;4954732;28;40553;-83
2023/06/06 07:48:53;;;;;;;3.17;2.97;;;;;;;27.85;33.91;99114.34;4939336;28;41189;-81
2023/06/06 07:51:21;;;;;;;3.50;3.13;;;;;;;28.46;32.62;99119.91;4943555;28;43781;-85
2023/06/06 07:53:54;;;;;;;3.37;3.10;;;;;;;29.54;31.21;99127.06;4934112;28;40966;-84
2023/06/06 07:56:23;;;;;;;3.53;3.10;;;;;;;30.67;30.84;99133.91;4951883;28;41669;-78
2023/06/06 07:58:53;;;;;;;3.57;3.27;;;;;;;31.90;28.75;99134.31;4939917;28;42945;-80
2023/06/06 08:01:21;;;;;;;3.50;3.20;;;;;;;33.13;27.82;99146.72;4926742;28;41938;-80
2023/06/06 08:03:50;;;;;;;3.47;3.07;;;;;;;33.96;26.88;99134.78;4949867;28;42428;-83
2023/06/06 08:06:18;;;;;;;3.10;2.90;;;;;;;34.81;25.59;99153.41;4954387;28;39721;-84
2023/06/06 08:08:48;;;;;;;3.33;3.00;;;;;;;35.54;24.99;99136.03;4939264;28;42503;-81
2023/06/06 08:11:16;;;;;;;3.27;2.97;;;;;;;36.36;23.90;99149.94;4925221;28;41791;-80
2023/06/06 08:13:45;;;;;;;3.17;2.87;;;;;;;37.05;23.27;99147.50;4932621;28;40938;-83
2023/06/06 08:16:14;;;;;;;3.75;3.45;;;;;;;37.46;22.56;99153.44;4938943;28;40976;-84
2023/06/06 08:18:43;;;;;;;3.70;3.30;;;;;;;37.44;22.08;99153.69;4948038;28;41707;-83
2023/06/06 08:21:12;;;;;;;4.63;3.47;;;;;;;37.29;22.92;99140.56;4923469;28;43018;-83
2023/06/06 08:23:40;;;;;;;3.75;3.40;;;;;;;36.74;22.21;99093.88;4949277;28;43313;-86
2023/06/06 08:26:27;;;;;;;3.35;3.05;;;;;;;36.71;22.68;99123.94;4949993;28;38578;-84
2023/06/06 08:28:55;;;;;;;3.33;3.03;;;;;;;36.81;22.12;99146.13;4956474;28;40878;-82
2023/06/06 08:31:25;;;;;;;2.70;2.50;;;;;;;36.49;22.75;99138.53;4973302;28;42635;-87
2023/06/06 08:33:52;;;;;;;4.75;2.90;;;;;;;36.49;23.04;99133.03;4964803;28;42252;-83
2023/06/06 08:36:20;;;;;;;3.42;2.92;;;;;;;36.53;22.65;99136.94;4936714;28;39912;-81
2023/06/06 08:38:48;;;;;;;3.50;3.20;;;;;;;35.85;22.06;99132.69;4936380;28;42244;-81
2023/06/06 08:41:18;;;;;;;3.65;2.80;;;;;;;35.66;22.90;99145.03;4953425;28;20605;-79
2023/06/06 08:44:07;;;;;;;2.80;2.60;;;;;;;35.30;22.86;99118.81;4954327;28;43190;-87
2023/06/06 08:46:38;;;;;;;2.80;2.60;;;;;;;35.04;22.93;99145.03;4952911;28;41266;-80
2023/06/06 08:49:06;;;;;;;4.07;2.83;;;;;;;34.83;22.80;99140.25;4937848;28;40748;-82
2023/06/06 08:51:34;;;;;;;5.50;2.90;;;;;;;34.57;23.02;99131.47;4958866;28;42632;-88
2023/06/06 08:54:08;;;;;;;2.70;2.50;;;;;;;34.31;23.18;99128.41;4963865;28;42190;-84
2023/06/06 08:56:37;;;;;;;4.70;2.80;;;;;;;34.09;24.04;99095.22;4953799;28;39883;-82
2023/06/06 08:59:05;;;;;;;2.83;2.60;;;;;;;33.94;24.67;99125.09;4935362;28;40547;-82
2023/06/06 09:01:35;;;;;;;3.93;2.67;;;;;;;33.40;23.86;99129.81;4952319;28;41918;-84
2023/06/06 09:04:23;;;;;;;2.77;2.50;;;;;;;33.06;24.82;99091.06;4935971;28;43007;-83
2023/06/06 09:06:56;;;;;;;2.60;2.40;;;;;;;33.16;24.66;99118.78;4936425;28;39926;-84
2023/06/06 09:09:25;;;;;;;3.77;2.40;;;;;;;33.14;24.83;99087.97;4935375;28;41006;-85
2023/06/06 09:11:55;;;;;;;4.17;2.60;;;;;;;33.15;24.79;99125.34;4936387;28;41966;-86
2023/06/06 09:14:23;;;;;;;5.07;2.50;;;;;;;33.02;24.57;99135.66;4936305;28;41495;-86
2023/06/06 09:16:55;;;;;;;5.70;2.37;;;;;;;32.74;24.69;99133.56;4936342;28;40063;-85
2023/06/06 09:19:26;;;;;;;3.00;2.70;;;;;;;33.01;24.52;99132.09;4949091;28;42198;-85
2023/06/06 09:21:58;;;;;;;2.73;2.47;;;;;;;32.83;24.37;99111.06;4936319;28;42768;-84
2023/06/06 09:24:26;;;;;;;2.90;2.30;;;;;;;32.83;24.24;99118.44;4936188;28;42101;-83
2023/06/06 09:26:54;;;;;;;2.40;2.20;;;;;;;32.99;24.79;99147.97;4936148;28;39318;-83
2023/06/06 09:29:22;;;;;;;3.37;2.30;;;;;;;33.21;24.38;99137.28;4935519;28;41502;-85
2023/06/06 09:31:49;;;;;;;2.93;2.23;;;;;;;33.65;24.96;99121.38;4936321;28;43360;-82
2023/06/06 09:34:26;;;;;;;2.87;2.63;;;;;;;34.55;22.90;99139.13;4935149;28;42139;-84
2023/06/06 09:36:55;;;;;;;2.83;2.17;;;;;;;35.22;22.37;99150.34;4936266;28;39914;-84
2023/06/06 09:39:23;;;;;;;2.90;2.70;;;;;;;35.71;21.72;99125.84;4935577;28;41742;-82
2023/06/06 09:41:51;;;;;;;4.47;2.40;;;;;;;35.97;21.31;99138.94;4936080;28;42482;-85
2023/06/06 09:44:20;;;;;;;3.10;2.80;;;;;;;36.77;20.83;99153.25;4936942;28;41034;-82
2023/06/06 09:46:49;;;;;;;3.08;2.50;;;;;;;37.62;19.97;99146.91;4936334;28;39106;-80
2023/06/06 09:49:17;;;;;;;3.97;2.33;;;;;;;38.21;18.71;99157.88;4952202;28;41682;-84
2023/06/06 09:51:45;;;;;;;3.38;2.40;;;;;;;38.79;18.85;99163.16;4936518;28;42443;-86
2023/06/06 09:54:16;;;;;;;3.40;2.25;;;;;;;39.06;18.50;99120.59;4953402;28;43300;-85
2023/06/06 09:56:49;;;;;;;2.40;2.10;;;;;;;39.88;17.84;99163.06;4954076;28;38949;-85
2023/06/06 09:59:17;;;;;;;3.97;2.30;;;;;;;40.28;18.43;99162.13;4936519;28;40822;-82
2023/06/06 10:01:48;;;;;;;3.65;2.45;;;;;;;39.34;17.95;99156.06;4951743;28;42089;-79
2023/06/06 10:04:16;;;;;;;2.63;2.35;;;;;;;38.09;19.14;99142.31;4951682;28;41904;-83
2023/06/06 10:06:46;;;;;;;2.45;2.20;;;;;;;37.12;19.86;99147.25;4935655;28;39305;-78
2023/06/06 10:09:16;;;;;;;2.00;1.90;;;;;;;35.62;20.87;99121.81;4934660;28;40597;-79
2023/06/06 10:11:47;;;;;;;2.40;2.20;;;;;;;34.90;21.85;99135.41;4935343;28;41749;-80
2023/06/06 10:14:16;;;;;;;2.80;2.10;;;;;;;34.39;23.02;99128.88;4934890;28;42097;-78
2023/06/06 10:16:43;;;;;;;2.37;2.00;;;;;;;34.08;22.22;99127.38;4951601;28;39008;-80
2023/06/06 10:19:14;;;;;;;4.77;2.53;;;;;;;34.09;23.10;99112.53;4950797;28;42533;-82
2023/06/06 10:21:44;;;;;;;2.90;2.60;;;;;;;34.51;22.85;99132.41;4951070;28;43418;-82
2023/06/06 10:24:11;;;;;;;5.77;2.37;;;;;;;34.17;22.72;99125.06;4951260;28;42475;-79
2023/06/06 10:26:48;;;;;;;2.50;2.30;;;;;;;34.22;22.99;99122.44;4951312;28;39613;-80
2023/06/06 10:29:32;;;;;;;3.67;2.83;;;;;;;33.78;23.41;99121.16;4950554;28;41814;-77
2023/06/06 10:32:12;;;;;;;2.97;2.40;;;;;;;33.11;23.68;99121.41;4918928;28;41812;-83
2023/06/06 10:34:44;;;;;;;3.67;2.60;;;;;;;32.74;23.78;99120.69;4950459;28;42268;-82
2023/06/06 10:37:16;;;;;;;2.93;2.37;;;;;;;32.38;24.73;99113.34;4952424;28;39652;-80
2023/06/06 10:39:47;;;;;;;2.70;2.10;;;;;;;32.03;25.60;99104.00;4949709;28;41768;-81
2023/06/06 10:42:16;;;;;;;2.70;2.50;;;;;;;32.32;25.58;99095.06;4951633;28;43767;-80
2023/06/06 10:44:55;;;;;;;2.50;2.10;;;;;;;32.53;25.58;99096.44;4955237;28;42227;-79
2023/06/06 10:47:30;;;;;;;2.50;2.23;;;;;;;32.56;25.18;99100.66;4939012;28;38824;-78
2023/06/06 10:50:23;;;;;;;3.83;3.00;;;;;;;32.19;25.25;99091.63;4952594;28;41820;-79
2023/06/06 10:52:55;;;;;;;3.83;2.60;;;;;;;32.28;25.23;99098.47;4955144;28;42723;-81
2023/06/06 10:55:45;;;;;;;2.80;2.30;;;;;;;31.86;24.94;99090.09;4935752;29;43141;-82
2023/06/06 10:58:27;;;;;;;2.53;2.33;;;;;;;31.36;25.18;99094.75;4938957;28;41414;-84
2023/06/06 11:01:00;;;;;;;4.63;2.20;;;;;;;31.62;25.43;99091.78;4956075;28;42240;-83
2023/06/06 11:03:39;;;;;;;3.50;2.40;;;;;;;31.90;26.50;99090.47;4955101;28;43889;-84
2023/06/06 11:06:13;;;;;;;3.13;2.30;;;;;;;31.64;25.17;99091.59;4962922;28;42957;-81
2023/06/06 11:08:44;;;;;;;2.60;2.40;;;;;;;31.91;27.12;99087.50;4974363;28;39617;-81
2023/06/06 11:11:21;;;;;;;3.17;2.20;;;;;;;31.84;25.02;99102.34;4972820;28;43193;-82
2023/06/06 11:13:56;;;;;;;4.10;2.47;;;;;;;32.17;26.45;99086.34;4969692;28;43270;-81
2023/06/06 11:16:51;;;;;;;2.70;2.30;;;;;;;32.30;26.02;99083.47;4971223;28;42487;-83
2023/06/06 11:19:21;;;;;;;2.63;2.37;;;;;;;32.49;24.31;99100.75;4973313;28;40026;-80
2023/06/06 11:21:50;;;;;;;4.70;2.57;;;;;;;32.70;26.34;99085.69;4956801;28;41099;-81
2023/06/06 11:24:20;;;;;;;2.53;2.33;;;;;;;32.46;24.90;99096.56;4973852;28;42022;-82
2023/06/06 11:26:51;;;;;;;2.73;2.27;;;;;;;32.25;24.81;99086.09;4977126;28;42496;-80
2023/06/06 11:29:21;;;;;;;3.93;2.43;;;;;;;32.23;24.37;99090.97;4974026;28;40287;-81
2023/06/06 11:31:49;;;;;;;3.50;2.87;;;;;;;31.93;25.40;99100.97;4974750;28;40783;-81
2023/06/06 11:34:16;;;;;;;3.30;2.50;;;;;;;32.02;25.88;99094.94;4973892;28;41752;-81
2023/06/06 11:36:46;;;;;;;3.63;2.03;;;;;;;32.11;24.90;99085.38;4973134;28;43219;-82
2023/06/06 11:39:14;;;;;;;2.50;2.30;;;;;;;32.28;24.64;99088.34;4957030;28;39413;-82
2023/06/06 11:41:44;;;;;;;3.57;2.40;;;;;;;32.73;23.95;99104.47;4972881;28;42861;-82
2023/06/06 11:44:14;;;;;;;3.17;2.17;;;;;;;32.83;24.45;99064.41;4973550;28;41923;-82
2023/06/06 11:46:51;;;;;;;2.47;2.27;;;;;;;32.48;24.36;99077.97;4940276;28;41144;-81
2023/06/06 11:49:21;;;;;;;4.20;2.47;;;;;;;32.02;24.91;99088.66;4951575;28;40990;-80
2023/06/06 11:51:56;;;;;;;2.87;2.50;;;;;;;32.87;25.53;99075.75;4953546;28;40928;-79
2023/06/06 11:54:24;;;;;;;5.00;2.40;;;;;;;33.52;24.33;99083.97;4953042;28;42093;-80
2023/06/06 11:56:53;;;;;;;3.47;2.20;;;;;;;34.01;23.14;99098.31;4934529;28;41158;-79
2023/06/06 11:59:21;;;;;;;2.73;2.20;;;;;;;34.85;24.22;99083.03;4953698;28;40471;-80
2023/06/06 12:01:52;;;;;;;3.33;2.50;;;;;;;35.38;23.59;99087.25;4936746;28;40886;-84
2023/06/06 12:04:28;;;;;;;3.30;2.13;;;;;;;35.57;22.71;99031.66;4950836;28;43255;-83
2023/06/06 12:07:03;;;;;;;3.30;2.37;;;;;;;36.61;22.04;99074.94;4936832;28;42289;-86
2023/06/06 12:09:32;;;;;;;2.22;2.10;;;;;;;37.36;19.94;99109.94;4937401;28;41066;-85
2023/06/06 12:12:04;;;;;;;3.00;2.38;;;;;;;37.78;19.66;99101.72;4921151;28;41113;-84
2023/06/06 12:15:17;;;;;;;3.35;2.25;;;;;;;38.61;19.06;99111.03;4937149;28;41822;-86